Time;durP1;ratioP1;P1;durP2;ratioP2;P2;SDS_P1;SDS_P2;PMS_P1;PMS_P2;Temp;Humidity;BMP_temperature;BMP_pressure;BME280_temperature;BME280_humidity;BME280_pressure;Samples;Min_cycle;Max_cycle;Signal;HPM_P1;HPM_P2
2023/12/11 00:04:52;;;;;;;9.57;2.83;;;11.30;99.90;;;;;;10480720;28;20215;-60
2023/12/11 00:09:56;;;;;;;13.97;2.77;;;11.30;99.90;;;;;;10489639;28;20203;-61
2023/12/11 00:14:59;;;;;;;20.45;3.63;;;11.20;99.90;;;;;;10484029;28;20615;-62
2023/12/11 00:20:05;;;;;;;12.93;3.35;;;11.20;99.90;;;;;;10487496;28;20263;-61
2023/12/11 00:25:10;;;;;;;12.93;2.80;;;11.20;99.90;;;;;;10481302;28;20249;-61
2023/12/11 00:30:15;;;;;;;15.63;3.70;;;11.20;99.90;;;;;;10484539;28;20202;-61
2023/12/11 00:35:20;;;;;;;14.80;3.40;;;11.10;99.90;;;;;;10493577;28;20223;-61
2023/12/11 00:40:23;;;;;;;17.60;4.00;;;11.20;99.90;;;;;;10488777;28;20258;-61
2023/12/11 00:45:27;;;;;;;16.83;3.30;;;11.20;99.90;;;;;;10486962;28;20689;-61
2023/12/11 00:50:32;;;;;;;12.77;3.38;;;11.20;99.90;;;;;;10486793;28;20653;-61
2023/12/11 00:55:35;;;;;;;15.55;3.90;;;11.20;99.90;;;;;;10492902;28;20250;-61
2023/12/11 01:00:39;;;;;;;20.53;3.87;;;11.10;99.90;;;;;;10493599;28;20199;-60
2023/12/11 01:05:45;;;;;;;19.37;4.03;;;11.10;99.90;;;;;;10488682;28;20666;-61
2023/12/11 01:10:48;;;;;;;18.40;3.55;;;11.10;99.90;;;;;;10488966;28;20199;-60
2023/12/11 01:15:52;;;;;;;14.32;3.05;;;11.10;99.90;;;;;;10489593;28;20219;-61
2023/12/11 01:20:57;;;;;;;19.10;3.65;;;11.10;99.90;;;;;;10490334;28;20272;-61
2023/12/11 01:26:00;;;;;;;18.53;4.00;;;11.10;99.90;;;;;;10491559;28;20252;-61
2023/12/11 01:31:04;;;;;;;24.20;4.77;;;11.10;99.90;;;;;;10487827;28;20231;-60
2023/12/11 01:36:10;;;;;;;23.77;4.23;;;11.10;99.90;;;;;;10492008;28;20222;-61
2023/12/11 01:41:13;;;;;;;15.77;3.67;;;11.10;99.90;;;;;;10490777;28;20241;-60
2023/12/11 01:46:18;;;;;;;21.92;4.22;;;11.10;99.90;;;;;;10490893;28;20256;-61
2023/12/11 01:51:23;;;;;;;19.45;4.13;;;11.10;99.90;;;;;;10489995;28;20612;-60
2023/12/11 01:56:28;;;;;;;22.42;4.85;;;11.10;99.90;;;;;;10487465;28;20569;-61
2023/12/11 02:01:31;;;;;;;25.25;5.03;;;11.10;99.90;;;;;;10491688;28;20293;-62
2023/12/11 02:06:37;;;;;;;22.05;4.15;;;11.10;99.90;;;;;;10491743;28;20199;-62
2023/12/11 02:11:41;;;;;;;21.95;4.60;;;11.10;99.90;;;;;;10489145;28;20242;-63
2023/12/11 02:16:47;;;;;;;18.20;3.78;;;11.10;99.90;;;;;;10491503;28;20288;-63
2023/12/11 02:21:53;;;;;;;20.52;3.88;;;11.10;99.90;;;;;;10476657;28;20264;-62
2023/12/11 02:26:58;;;;;;;20.88;4.13;;;11.10;99.90;;;;;;10481056;28;20202;-62
2023/12/11 02:32:02;;;;;;;25.33;4.63;;;11.10;99.90;;;;;;10486597;28;20596;-62
2023/12/11 02:37:05;;;;;;;16.70;4.05;;;11.10;99.90;;;;;;10458860;28;20261;-62
2023/12/11 02:42:10;;;;;;;24.83;4.27;;;11.00;99.90;;;;;;10490186;28;20219;-60
2023/12/11 02:47:14;;;;;;;24.23;4.22;;;11.00;99.90;;;;;;10479269;28;20203;-63
2023/12/11 02:52:18;;;;;;;20.02;3.88;;;11.00;99.90;;;;;;10481952;28;20273;-62
2023/12/11 02:57:23;;;;;;;21.65;4.63;;;11.00;99.90;;;;;;10484748;28;20260;-61
2023/12/11 03:02:26;;;;;;;24.48;4.45;;;11.00;99.90;;;;;;10483265;28;20223;-61
2023/12/11 03:07:30;;;;;;;20.63;4.90;;;11.00;99.90;;;;;;10479571;28;20226;-60
2023/12/11 03:12:35;;;;;;;22.17;4.03;;;11.00;99.90;;;;;;10485873;28;20227;-60
2023/12/11 03:17:39;;;;;;;19.80;4.55;;;11.00;99.90;;;;;;10490327;28;20627;-61
2023/12/11 03:22:43;;;;;;;18.95;3.95;;;11.00;99.90;;;;;;10485843;28;20316;-61
2023/12/11 03:27:48;;;;;;;15.82;3.47;;;11.00;99.90;;;;;;10484032;28;20562;-62
2023/12/11 03:32:51;;;;;;;20.90;4.22;;;11.00;99.90;;;;;;10489120;28;20222;-63
2023/12/11 03:37:55;;;;;;;20.08;4.10;;;11.00;99.90;;;;;;10485236;28;20264;-61
2023/12/11 03:43:00;;;;;;;16.80;4.20;;;11.00;99.90;;;;;;10483988;28;20211;-60
2023/12/11 03:48:04;;;;;;;25.25;4.85;;;11.00;99.90;;;;;;10482602;28;20554;-62
2023/12/11 03:53:10;;;;;;;20.80;4.57;;;11.10;99.90;;;;;;10478394;28;20219;-62
2023/12/11 03:58:15;;;;;;;17.55;3.65;;;11.10;99.90;;;;;;10483657;28;20221;-61
2023/12/11 04:03:18;;;;;;;14.18;3.28;;;11.10;99.90;;;;;;10438267;28;20223;-64
2023/12/11 04:08:22;;;;;;;11.98;2.88;;;11.10;99.90;;;;;;10493452;28;20199;-64
2023/12/11 04:13:27;;;;;;;15.95;3.33;;;11.00;99.90;;;;;;10493599;28;20241;-71
2023/12/11 04:18:30;;;;;;;12.57;3.43;;;11.00;99.90;;;;;;10485114;28;20221;-64
2023/12/11 04:23:34;;;;;;;19.40;3.45;;;10.90;99.90;;;;;;10493193;28;20215;-65
2023/12/11 04:28:39;;;;;;;20.80;4.13;;;10.90;99.90;;;;;;10493026;28;20594;-63
2023/12/11 04:33:43;;;;;;;15.37;3.53;;;10.90;99.90;;;;;;10492446;28;20231;-65
2023/12/11 04:38:47;;;;;;;20.00;4.07;;;10.90;99.90;;;;;;10474958;28;20196;-65
2023/12/11 04:43:52;;;;;;;17.17;3.97;;;10.90;99.90;;;;;;10455772;28;20211;-67
2023/12/11 04:48:55;;;;;;;19.70;3.53;;;11.00;99.90;;;;;;10484468;28;20569;-61
2023/12/11 04:54:00;;;;;;;15.68;3.95;;;11.00;99.90;;;;;;10483239;28;20480;-64
2023/12/11 04:59:05;;;;;;;12.63;3.10;;;11.00;99.90;;;;;;10485480;28;20652;-63
2023/12/11 05:04:08;;;;;;;14.15;2.88;;;11.00;99.90;;;;;;10484742;28;20292;-66
2023/12/11 05:09:12;;;;;;;16.10;3.70;;;10.90;99.90;;;;;;10477181;28;20226;-64
2023/12/11 05:14:17;;;;;;;16.83;3.20;;;10.90;99.90;;;;;;10476536;28;20269;-64
2023/12/11 05:19:20;;;;;;;12.30;3.33;;;10.80;99.90;;;;;;10484267;28;20211;-65
2023/12/11 05:24:24;;;;;;;12.77;2.87;;;10.80;99.90;;;;;;10490851;28;20222;-64
2023/12/11 05:29:29;;;;;;;14.30;3.13;;;10.80;99.90;;;;;;10484666;28;20233;-66
2023/12/11 05:34:33;;;;;;;14.40;2.97;;;10.80;99.90;;;;;;10497676;28;20253;-65
2023/12/11 05:39:36;;;;;;;13.03;2.70;;;10.80;99.90;;;;;;10492803;28;20195;-68
2023/12/11 05:44:45;;;;;;;11.67;2.80;;;10.80;99.90;;;;;;10495216;28;20630;-68
2023/12/11 05:49:48;;;;;;;9.40;2.43;;;10.70;99.90;;;;;;10491783;28;20534;-71
2023/12/11 05:54:53;;;;;;;8.57;2.57;;;10.70;99.90;;;;;;10491016;28;20568;-68
2023/12/11 05:59:58;;;;;;;11.18;3.17;;;10.70;99.90;;;;;;10494775;28;20257;-68
2023/12/11 06:05:01;;;;;;;12.27;3.03;;;10.70;99.90;;;;;;10487651;28;20752;-68
2023/12/11 06:10:06;;;;;;;16.43;3.37;;;10.70;99.90;;;;;;10492456;28;20199;-69
2023/12/11 06:15:12;;;;;;;19.77;3.75;;;10.70;99.90;;;;;;10486397;28;20276;-68
2023/12/11 06:20:16;;;;;;;19.27;3.70;;;10.80;99.90;;;;;;10487393;28;20257;-68
2023/12/11 06:25:19;;;;;;;15.40;3.97;;;10.80;99.90;;;;;;10486256;28;20713;-70
2023/12/11 06:30:24;;;;;;;17.58;3.28;;;10.90;99.90;;;;;;10483061;28;20273;-67
2023/12/11 06:35:28;;;;;;;16.53;3.30;;;10.90;99.90;;;;;;10484573;28;20223;-70
2023/12/11 06:40:32;;;;;;;15.95;3.42;;;10.90;99.90;;;;;;10486160;28;20248;-69
2023/12/11 06:45:36;;;;;;;15.57;2.83;;;10.90;99.90;;;;;;10484925;28;20557;-68
2023/12/11 06:50:41;;;;;;;16.27;3.35;;;11.00;99.90;;;;;;10486072;28;20233;-69
2023/12/11 06:55:45;;;;;;;11.65;2.95;;;11.00;99.90;;;;;;10484468;28;20606;-68
2023/12/11 07:00:50;;;;;;;13.32;3.35;;;11.00;99.90;;;;;;10484348;28;20266;-70
2023/12/11 07:05:54;;;;;;;10.60;3.25;;;11.00;99.90;;;;;;10485748;28;20199;-67
2023/12/11 07:10:58;;;;;;;15.53;3.37;;;11.00;99.90;;;;;;10483868;28;20220;-68
2023/12/11 07:16:03;;;;;;;12.80;3.75;;;11.00;99.90;;;;;;10483046;28;20273;-67
2023/12/11 07:21:10;;;;;;;17.50;3.40;;;11.00;99.90;;;;;;10483717;28;20215;-67
2023/12/11 07:26:13;;;;;;;16.48;4.68;;;11.00;99.90;;;;;;10482706;28;20438;-64
2023/12/11 07:31:18;;;;;;;16.17;3.28;;;11.00;99.90;;;;;;10483519;28;20230;-65
2023/12/11 07:36:23;;;;;;;15.18;3.53;;;11.10;99.90;;;;;;10483922;28;20218;-65
2023/12/11 07:41:26;;;;;;;17.00;3.45;;;11.10;99.90;;;;;;10483161;28;20291;-65
2023/12/11 07:46:31;;;;;;;14.30;3.80;;;11.00;99.90;;;;;;10480550;28;20202;-64
2023/12/11 07:51:35;;;;;;;16.90;3.72;;;11.00;99.90;;;;;;10484914;28;20227;-64
2023/12/11 07:56:40;;;;;;;14.05;3.83;;;10.90;99.90;;;;;;10483251;28;20717;-64
2023/12/11 08:01:45;;;;;;;13.73;3.47;;;10.90;99.90;;;;;;10485711;28;20223;-64
2023/12/11 08:06:50;;;;;;;18.97;3.93;;;10.90;99.90;;;;;;10481564;28;20195;-65
2023/12/11 08:11:53;;;;;;;17.25;3.05;;;10.90;99.90;;;;;;10482935;28;20219;-64
2023/12/11 08:16:59;;;;;;;16.77;3.20;;;10.90;99.90;;;;;;10457542;28;20219;-64
2023/12/11 08:22:03;;;;;;;13.25;3.20;;;10.90;99.90;;;;;;10481556;28;20219;-64
2023/12/11 08:27:07;;;;;;;16.53;3.50;;;10.90;99.90;;;;;;10485637;28;20257;-64
2023/12/11 08:32:12;;;;;;;13.50;3.47;;;10.90;99.90;;;;;;10482557;28;20695;-64
2023/12/11 08:37:16;;;;;;;12.03;2.87;;;10.80;99.90;;;;;;10484211;28;20219;-64
2023/12/11 08:42:20;;;;;;;14.37;3.33;;;10.80;99.90;;;;;;10483603;28;20227;-64
2023/12/11 08:47:26;;;;;;;12.13;3.00;;;10.90;99.90;;;;;;10482650;28;20199;-63
2023/12/11 08:52:29;;;;;;;17.20;3.57;;;10.90;99.90;;;;;;10486846;28;20601;-64
2023/12/11 08:57:33;;;;;;;16.25;3.33;;;11.00;99.90;;;;;;10491691;28;20226;-64
2023/12/11 09:02:38;;;;;;;16.45;3.40;;;11.00;99.90;;;;;;10492365;28;20689;-62
2023/12/11 09:07:42;;;;;;;15.27;3.03;;;11.00;99.90;;;;;;10493220;28;20226;-64
2023/12/11 09:12:46;;;;;;;14.25;3.08;;;11.10;99.90;;;;;;10491800;28;20227;-65
2023/12/11 09:17:53;;;;;;;20.60;3.97;;;11.10;99.90;;;;;;10461545;28;20241;-65
2023/12/11 09:22:58;;;;;;;15.85;3.90;;;11.10;99.90;;;;;;10454763;28;20222;-63
2023/12/11 09:28:01;;;;;;;10.40;2.75;;;11.10;99.90;;;;;;10486115;28;20207;-61
2023/12/11 09:33:06;;;;;;;13.15;2.97;;;11.10;99.90;;;;;;10489187;28;20250;-63
2023/12/11 09:38:14;;;;;;;11.13;2.85;;;11.20;99.90;;;;;;10498330;28;20215;-63
2023/12/11 09:43:19;;;;;;;11.20;2.83;;;11.20;99.90;;;;;;10498023;28;20238;-64
2023/12/11 09:48:24;;;;;;;8.65;2.67;;;11.20;99.90;;;;;;10491608;28;20207;-63
2023/12/11 09:53:31;;;;;;;9.55;2.28;;;11.20;99.90;;;;;;10482548;28;20278;-62
2023/12/11 09:58:35;;;;;;;11.48;2.63;;;11.20;99.90;;;;;;10496332;28;20226;-63
2023/12/11 10:03:40;;;;;;;9.60;2.47;;;11.10;99.90;;;;;;10493389;28;20227;-62
2023/12/11 10:08:45;;;;;;;12.23;2.03;;;11.10;99.90;;;;;;10488278;28;20199;-63
2023/12/11 10:13:49;;;;;;;8.48;2.17;;;11.20;99.90;;;;;;10490744;28;20276;-64
2023/12/11 10:18:55;;;;;;;13.52;2.30;;;11.20;99.90;;;;;;10485759;28;20223;-64
2023/12/11 10:24:03;;;;;;;10.10;2.78;;;11.20;99.90;;;;;;10474504;28;20260;-65
2023/12/11 10:29:23;;;;;;;11.83;3.60;;;11.20;99.90;;;;;;10498698;28;20221;-66
2023/12/11 10:34:42;;;;;;;7.40;2.60;;;11.20;99.90;;;;;;10483799;28;20219;-64
2023/12/11 10:39:53;;;;;;;7.22;2.00;;;11.20;99.90;;;;;;10494205;28;20219;-65
2023/12/11 10:44:57;;;;;;;8.23;1.80;;;11.20;99.90;;;;;;10492426;28;20258;-65
2023/12/11 10:50:03;;;;;;;9.30;2.30;;;11.20;99.90;;;;;;10484137;28;20195;-65
2023/12/11 10:55:07;;;;;;;14.55;2.42;;;11.20;99.90;;;;;;10478712;28;20241;-63
2023/12/11 11:00:14;;;;;;;7.23;2.47;;;11.10;99.90;;;;;;10490011;28;20273;-64
2023/12/11 11:05:20;;;;;;;9.50;2.35;;;11.10;99.90;;;;;;10495303;28;20241;-66
2023/12/11 11:10:31;;;;;;;8.65;2.25;;;11.00;99.90;;;;;;10490315;28;20221;-66
2023/12/11 11:15:35;;;;;;;6.53;2.00;;;11.00;99.90;;;;;;10482736;28;20219;-66
2023/12/11 11:20:40;;;;;;;6.78;2.20;;;10.90;99.90;;;;;;10495534;28;20248;-65
2023/12/11 11:25:50;;;;;;;5.68;2.50;;;10.90;99.90;;;;;;10493798;28;20272;-64
2023/12/11 11:30:55;;;;;;;8.07;2.58;;;10.80;99.90;;;;;;10484095;28;20665;-65
2023/12/11 11:36:02;;;;;;;9.10;3.03;;;10.80;99.90;;;;;;10495487;28;20206;-67
2023/12/11 11:41:06;;;;;;;8.13;2.10;;;10.80;99.90;;;;;;10491312;28;20219;-67
2023/12/11 11:46:09;;;;;;;10.30;2.70;;;10.80;99.90;;;;;;10485595;28;20264;-64
2023/12/11 11:51:17;;;;;;;5.53;2.33;;;10.90;99.90;;;;;;10465924;28;20283;-64
2023/12/11 11:56:20;;;;;;;7.13;2.20;;;10.90;99.90;;;;;;10486144;28;20215;-64
2023/12/11 12:01:24;;;;;;;7.15;2.17;;;10.90;99.90;;;;;;10486490;28;20235;-66
2023/12/11 12:06:29;;;;;;;6.88;2.10;;;10.90;99.90;;;;;;10486302;28;20199;-66
2023/12/11 12:11:35;;;;;;;6.78;1.92;;;10.90;99.90;;;;;;10487565;28;20223;-66
2023/12/11 12:16:38;;;;;;;4.38;1.98;;;10.90;99.90;;;;;;10487051;28;20596;-66
2023/12/11 12:21:54;;;;;;;5.97;2.20;;;11.00;99.90;;;;;;10484363;28;20222;-65
2023/12/11 12:27:02;;;;;;;4.50;1.73;;;11.00;99.90;;;;;;10489197;28;20214;-65
2023/12/11 12:32:08;;;;;;;3.30;1.48;;;11.00;99.90;;;;;;10494454;28;20219;-65
2023/12/11 12:37:15;;;;;;;4.15;2.10;;;10.90;99.90;;;;;;10493156;28;20214;-65
2023/12/11 12:42:19;;;;;;;8.23;2.38;;;10.90;99.80;;;;;;10490212;28;20223;-65
2023/12/11 12:47:22;;;;;;;4.30;2.00;;;11.00;99.90;;;;;;10494626;28;20221;-65
2023/12/11 12:52:28;;;;;;;6.43;2.22;;;11.00;99.90;;;;;;10492972;28;20796;-65
2023/12/11 12:57:36;;;;;;;6.82;2.08;;;10.90;99.70;;;;;;10493233;28;20824;-66
2023/12/11 13:02:40;;;;;;;6.53;2.60;;;11.00;99.80;;;;;;10495905;28;20280;-70
2023/12/11 13:07:57;;;;;;;6.40;2.20;;;11.00;99.70;;;;;;10493802;28;20202;-65
2023/12/11 13:13:09;;;;;;;6.40;2.83;;;10.90;99.30;;;;;;10487555;28;20219;-64
2023/12/11 13:18:15;;;;;;;4.57;2.30;;;10.90;99.20;;;;;;10491799;28;20248;-64
2023/12/11 13:23:20;;;;;;;7.32;2.50;;;10.90;99.00;;;;;;10493047;28;20249;-63
2023/12/11 13:28:24;;;;;;;8.60;2.60;;;10.90;99.00;;;;;;10490923;28;20630;-65
2023/12/11 13:33:29;;;;;;;7.85;3.00;;;10.90;99.00;;;;;;10491221;28;20223;-63
2023/12/11 13:38:35;;;;;;;7.32;2.60;;;10.90;99.20;;;;;;10489820;28;20599;-64
2023/12/11 13:43:39;;;;;;;7.10;2.83;;;11.00;98.90;;;;;;10489798;28;20230;-66
2023/12/11 13:48:42;;;;;;;7.32;2.30;;;11.00;98.60;;;;;;10490709;28;20199;-65
2023/12/11 13:53:48;;;;;;;5.83;2.73;;;11.00;98.40;;;;;;10494431;28;20223;-65
2023/12/11 13:58:51;;;;;;;11.40;2.80;;;10.90;98.30;;;;;;10496770;28;20223;-67
2023/12/11 14:03:55;;;;;;;6.93;2.90;;;10.80;98.10;;;;;;10497324;28;20219;-67
2023/12/11 14:09:03;;;;;;;7.28;2.40;;;10.80;98.20;;;;;;10492178;28;20208;-67
2023/12/11 14:14:07;;;;;;;7.32;2.40;;;10.80;98.40;;;;;;10490705;28;20635;-68
2023/12/11 14:19:10;;;;;;;5.65;2.38;;;10.80;98.60;;;;;;10491313;28;20211;-67
2023/12/11 14:24:16;;;;;;;8.70;3.58;;;10.80;98.40;;;;;;10497278;28;20206;-67
2023/12/11 14:29:19;;;;;;;6.25;2.40;;;10.80;98.30;;;;;;10494735;28;20206;-68
2023/12/11 14:34:23;;;;;;;4.90;2.28;;;10.70;98.10;;;;;;10494400;28;20268;-67
2023/12/11 14:39:28;;;;;;;6.72;2.60;;;10.70;98.10;;;;;;10495881;28;20280;-67
2023/12/11 14:44:34;;;;;;;7.32;2.58;;;10.70;98.10;;;;;;10491587;28;20284;-67
2023/12/11 14:49:37;;;;;;;7.43;2.00;;;10.70;98.30;;;;;;10494985;28;20575;-67
2023/12/11 14:54:42;;;;;;;7.37;1.83;;;10.70;98.20;;;;;;10496154;28;20219;-66
2023/12/11 14:59:47;;;;;;;4.63;1.73;;;10.60;98.30;;;;;;10494831;28;20218;-67
2023/12/11 15:04:51;;;;;;;3.90;1.37;;;10.50;98.30;;;;;;10490902;28;20219;-67
2023/12/11 15:09:57;;;;;;;2.40;1.33;;;10.50;98.70;;;;;;10492982;28;20199;-67
2023/12/11 15:15:02;;;;;;;4.60;1.60;;;10.40;98.60;;;;;;10490884;28;20234;-67
2023/12/11 15:20:09;;;;;;;3.90;1.70;;;10.30;98.80;;;;;;10490926;28;20269;-67
2023/12/11 15:25:15;;;;;;;6.50;1.90;;;10.20;99.20;;;;;;10491582;28;20219;-68
2023/12/11 15:30:21;;;;;;;7.17;2.20;;;10.20;99.80;;;;;;10487380;28;20207;-62
2023/12/11 15:35:24;;;;;;;6.03;2.83;;;10.20;99.90;;;;;;10489909;28;20240;-62
2023/12/11 15:40:29;;;;;;;4.17;2.30;;;10.10;99.90;;;;;;10489376;28;20218;-62
2023/12/11 15:45:33;;;;;;;5.03;2.00;;;10.10;99.90;;;;;;10482019;28;20222;-63
2023/12/11 15:50:37;;;;;;;6.00;1.93;;;10.10;99.90;;;;;;10471384;28;20575;-61
2023/12/11 15:55:42;;;;;;;5.87;1.77;;;10.00;99.90;;;;;;10484700;28;20287;-61
2023/12/11 16:00:46;;;;;;;4.20;2.10;;;10.00;99.90;;;;;;10496222;28;20264;-64
2023/12/11 16:05:49;;;;;;;4.60;1.93;;;10.00;99.90;;;;;;10486903;28;20269;-61
2023/12/11 16:10:54;;;;;;;4.83;1.70;;;10.00;99.90;;;;;;10479442;28;20256;-62
2023/12/11 16:16:00;;;;;;;5.47;1.60;;;10.00;99.90;;;;;;10454259;28;21369;-63
2023/12/11 16:21:04;;;;;;;4.07;2.10;;;10.00;99.90;;;;;;10454056;28;20231;-62
2023/12/11 16:26:14;;;;;;;5.57;2.90;;;10.00;99.90;;;;;;10452505;28;20191;-68
2023/12/11 16:31:21;;;;;;;6.80;3.17;;;10.00;99.90;;;;;;10452934;28;20275;-66
2023/12/11 16:36:25;;;;;;;6.97;3.40;;;10.00;99.90;;;;;;10451664;28;20224;-66
2023/12/11 16:41:30;;;;;;;6.83;3.20;;;10.10;99.90;;;;;;10437657;28;20227;-67
2023/12/11 16:46:34;;;;;;;11.03;4.93;;;10.10;99.90;;;;;;10438728;28;20204;-66
2023/12/11 16:51:38;;;;;;;6.30;3.90;;;10.10;99.90;;;;;;10436460;28;20277;-71
2023/12/11 16:56:44;;;;;;;16.03;8.87;;;10.10;99.90;;;;;;10449257;28;20204;-64
2023/12/11 17:01:48;;;;;;;11.23;5.97;;;10.10;99.90;;;;;;10441400;28;20245;-67
2023/12/11 17:06:51;;;;;;;8.93;4.87;;;10.10;99.90;;;;;;10435322;28;20196;-66
2023/12/11 17:11:56;;;;;;;13.03;6.03;;;10.10;99.90;;;;;;10446213;28;20224;-68
2023/12/11 17:17:00;;;;;;;9.87;4.80;;;10.10;99.90;;;;;;10445543;28;20261;-68
2023/12/11 17:22:04;;;;;;;9.90;4.77;;;10.10;99.90;;;;;;10451722;28;20265;-71
2023/12/11 17:32:19;;;;;;;14.50;4.47;;;10.10;99.90;;;;;;10453129;28;20313;-66
2023/12/11 17:37:23;;;;;;;9.90;4.75;;;10.20;99.90;;;;;;10452645;28;20200;-67
2023/12/11 17:42:27;;;;;;;12.67;4.63;;;10.20;99.90;;;;;;10452814;28;20228;-67
2023/12/11 17:47:35;;;;;;;10.47;4.27;;;10.20;99.90;;;;;;10452128;28;20204;-67
2023/12/11 17:52:39;;;;;;;8.53;3.90;;;10.20;99.90;;;;;;10456681;28;20211;-68
2023/12/11 17:57:42;;;;;;;11.90;4.50;;;10.20;99.90;;;;;;10455173;28;20720;-65
2023/12/11 18:02:48;;;;;;;16.50;5.37;;;10.20;99.90;;;;;;10454358;28;20277;-67
2023/12/11 18:07:51;;;;;;;15.88;4.43;;;10.20;99.90;;;;;;10451651;28;20204;-65
2023/12/11 18:12:55;;;;;;;12.40;6.22;;;10.20;99.90;;;;;;10440539;28;20464;-66
2023/12/11 18:18:01;;;;;;;12.70;5.23;;;10.30;99.90;;;;;;10441724;28;20235;-66
2023/12/11 18:23:05;;;;;;;13.15;5.82;;;10.40;99.90;;;;;;10444328;28;20751;-66
2023/12/11 18:28:09;;;;;;;14.73;6.05;;;10.40;99.90;;;;;;10447975;28;20265;-65
2023/12/11 18:33:14;;;;;;;11.93;6.45;;;10.40;99.90;;;;;;10453814;28;20220;-64
2023/12/11 18:38:18;;;;;;;13.00;6.22;;;10.40;99.90;;;;;;10451633;28;20670;-64
2023/12/11 18:43:22;;;;;;;15.20;6.10;;;10.40;99.90;;;;;;10450373;28;20231;-66
2023/12/11 18:48:28;;;;;;;12.45;7.47;;;10.40;99.90;;;;;;10452269;28;20204;-66
2023/12/11 18:53:31;;;;;;;15.48;7.90;;;10.40;99.90;;;;;;10447679;28;20277;-65
2023/12/11 18:58:35;;;;;;;15.43;7.93;;;10.40;99.90;;;;;;10447099;28;20597;-65
2023/12/11 19:03:40;;;;;;;18.90;7.63;;;10.40;99.90;;;;;;10449401;28;20231;-64
2023/12/11 19:08:44;;;;;;;9.33;6.73;;;10.40;99.90;;;;;;10450807;28;20207;-65
2023/12/11 19:13:48;;;;;;;12.83;7.17;;;10.40;99.90;;;;;;10450548;28;20273;-65
2023/12/11 19:18:53;;;;;;;14.03;7.43;;;10.30;99.90;;;;;;10449762;28;20204;-66
2023/12/11 19:23:56;;;;;;;14.07;7.47;;;10.40;99.90;;;;;;10449806;28;20269;-66
2023/12/11 19:29:00;;;;;;;15.27;8.02;;;10.40;99.90;;;;;;10448876;28;20260;-66
2023/12/11 19:34:05;;;;;;;15.27;7.40;;;10.40;99.90;;;;;;10449404;28;20216;-66
2023/12/11 19:39:09;;;;;;;22.02;6.88;;;10.40;99.90;;;;;;10447824;28;20201;-67
2023/12/11 19:44:13;;;;;;;16.07;6.90;;;10.40;99.90;;;;;;10450993;28;20231;-66
2023/12/11 19:49:18;;;;;;;17.07;6.80;;;10.40;99.90;;;;;;10447668;28;20200;-66
2023/12/11 19:54:22;;;;;;;15.23;6.13;;;10.40;99.90;;;;;;10450931;28;20231;-66
2023/12/11 19:59:25;;;;;;;12.60;5.30;;;10.40;99.90;;;;;;10445531;28;20215;-67
2023/12/11 20:04:31;;;;;;;14.83;5.53;;;10.40;99.90;;;;;;10449687;28;20627;-67
2023/12/11 20:09:34;;;;;;;14.97;4.90;;;10.50;99.90;;;;;;10443904;28;20235;-66
2023/12/11 20:14:38;;;;;;;15.23;4.93;;;10.40;99.90;;;;;;10448574;28;20277;-67
2023/12/11 20:19:43;;;;;;;12.35;5.05;;;10.40;99.90;;;;;;10452441;28;20219;-63
2023/12/11 20:24:47;;;;;;;12.05;4.55;;;10.40;99.90;;;;;;10452343;28;20224;-64
2023/12/11 20:29:51;;;;;;;10.20;4.85;;;10.40;99.90;;;;;;10452031;28;20203;-62
2023/12/11 20:34:56;;;;;;;12.17;5.00;;;10.40;99.90;;;;;;10451120;28;20227;-64
2023/12/11 20:39:59;;;;;;;12.35;4.57;;;10.40;99.90;;;;;;10451582;28;20585;-63
2023/12/11 20:45:04;;;;;;;9.90;3.97;;;10.40;99.90;;;;;;10451368;28;20223;-63
2023/12/11 20:50:12;;;;;;;9.77;4.03;;;10.40;99.90;;;;;;10459363;28;20192;-65
2023/12/11 20:55:15;;;;;;;9.37;3.87;;;10.30;99.90;;;;;;10453687;28;20246;-63
2023/12/11 21:00:20;;;;;;;11.52;3.70;;;10.30;99.90;;;;;;10458037;28;20345;-63
2023/12/11 21:05:25;;;;;;;12.00;3.93;;;10.40;99.90;;;;;;10458926;28;20341;-63
2023/12/11 21:10:28;;;;;;;13.77;4.07;;;10.30;99.90;;;;;;10458535;28;20200;-63
2023/12/11 21:15:34;;;;;;;11.97;4.40;;;10.30;99.90;;;;;;10457913;28;20223;-65
2023/12/11 21:20:39;;;;;;;10.23;3.57;;;10.30;99.90;;;;;;10457258;28;20219;-63
2023/12/11 21:25:42;;;;;;;9.60;3.57;;;10.30;99.90;;;;;;10457980;28;20203;-63
2023/12/11 21:30:47;;;;;;;10.20;3.73;;;10.30;99.90;;;;;;10437620;28;20273;-62
2023/12/11 21:35:52;;;;;;;13.20;4.30;;;10.30;99.90;;;;;;10451055;28;20207;-63
2023/12/11 21:40:56;;;;;;;12.00;4.77;;;10.20;99.90;;;;;;10457550;28;20365;-62
2023/12/11 21:45:59;;;;;;;9.53;4.33;;;10.30;99.90;;;;;;10456881;28;20208;-63
2023/12/11 21:51:05;;;;;;;8.37;4.67;;;10.20;99.90;;;;;;10456651;28;20273;-63
2023/12/11 21:56:09;;;;;;;11.93;5.55;;;10.20;99.90;;;;;;10454040;28;20189;-63
2023/12/11 22:01:13;;;;;;;12.13;5.77;;;10.20;99.90;;;;;;10455428;28;20694;-61
2023/12/11 22:06:18;;;;;;;11.43;5.17;;;10.20;99.90;;;;;;10457223;28;20208;-63
2023/12/11 22:11:22;;;;;;;13.03;6.10;;;10.20;99.90;;;;;;10435601;28;20215;-62
2023/12/11 22:16:26;;;;;;;15.53;5.70;;;10.10;99.90;;;;;;10428142;28;20262;-63
2023/12/11 22:21:31;;;;;;;16.13;6.40;;;10.10;99.90;;;;;;10454022;28;20223;-62
2023/12/11 22:26:39;;;;;;;14.20;5.87;;;10.10;99.90;;;;;;10443794;28;20712;-65
2023/12/11 22:31:46;;;;;;;13.57;5.83;;;10.10;99.90;;;;;;10448406;28;20228;-63
2023/12/11 22:36:53;;;;;;;15.47;5.90;;;10.10;99.90;;;;;;10451702;28;20204;-64
2023/12/11 22:41:57;;;;;;;15.80;6.10;;;10.10;99.90;;;;;;10443634;28;20223;-65
2023/12/11 22:47:00;;;;;;;10.93;5.57;;;10.10;99.90;;;;;;10451440;28;20204;-64
2023/12/11 22:52:06;;;;;;;13.73;5.80;;;10.10;99.90;;;;;;10448008;28;20261;-63
2023/12/11 22:57:09;;;;;;;13.63;5.70;;;10.10;99.90;;;;;;10446270;28;20199;-64
2023/12/11 23:02:13;;;;;;;14.97;5.30;;;10.10;99.90;;;;;;10446640;28;20227;-65
2023/12/11 23:07:18;;;;;;;10.03;5.07;;;10.10;99.90;;;;;;10448719;28;20211;-62
2023/12/11 23:12:22;;;;;;;14.07;5.33;;;10.10;99.90;;;;;;10419987;28;20375;-62
2023/12/11 23:17:26;;;;;;;14.27;5.70;;;10.10;99.90;;;;;;10451638;28;20207;-66
2023/12/11 23:22:31;;;;;;;11.93;5.00;;;10.20;99.90;;;;;;10447864;28;20223;-64
2023/12/11 23:27:34;;;;;;;13.60;5.72;;;10.20;99.90;;;;;;10442001;28;20208;-64
2023/12/11 23:32:38;;;;;;;15.43;4.83;;;10.20;99.90;;;;;;10444660;28;20220;-65
2023/12/11 23:37:43;;;;;;;10.10;4.73;;;10.10;99.90;;;;;;10439982;28;20204;-62
2023/12/11 23:42:46;;;;;;;12.83;4.23;;;10.10;99.90;;;;;;10442636;28;20227;-65
2023/12/11 23:47:50;;;;;;;11.63;4.70;;;10.20;99.90;;;;;;10438401;28;20228;-64
2023/12/11 23:52:55;;;;;;;11.30;4.78;;;10.20;99.90;;;;;;10434528;28;20219;-61
2023/12/11 23:57:59;;;;;;;10.07;4.43;;;10.20;99.90;;;;;;10442505;28;20200;-64
